createdAt,value
2022-10-01T00:02:13.339Z,0.80
2022-10-01T00:04:41.582Z,1.10
2022-10-01T00:07:14.985Z,0.95
2022-10-01T00:09:43.346Z,1.10
2022-10-01T00:12:15.811Z,0.80
2022-10-01T00:14:45.107Z,1.00
2022-10-01T00:17:13.386Z,1.08
2022-10-01T00:19:41.642Z,0.70
2022-10-01T00:22:09.917Z,1.38
2022-10-01T00:24:38.308Z,1.38
2022-10-01T00:27:06.557Z,1.60
2022-10-01T00:29:36.488Z,1.33
2022-10-01T00:32:04.875Z,1.83
2022-10-01T00:34:33.164Z,0.90
2022-10-01T00:37:01.407Z,1.92
2022-10-01T00:39:29.700Z,2.45
2022-10-01T00:41:57.922Z,1.48
2022-10-01T00:44:30.480Z,1.60
2022-10-01T00:47:02.819Z,1.85
2022-10-01T00:49:32.123Z,1.95
2022-10-01T00:52:03.234Z,1.02
2022-10-01T00:54:33.849Z,1.65
2022-10-01T00:57:03.098Z,1.75
2022-10-01T00:59:31.978Z,2.35
2022-10-01T01:02:01.650Z,1.42
2022-10-01T01:04:30.016Z,2.38
2022-10-01T01:06:59.639Z,1.38
2022-10-01T01:09:30.091Z,2.42
2022-10-01T01:12:01.153Z,1.50
2022-10-01T01:14:32.563Z,1.40
2022-10-01T01:17:08.463Z,1.67
2022-10-01T01:19:45.510Z,1.80
2022-10-01T01:22:15.987Z,2.15
2022-10-01T01:24:51.576Z,2.03
2022-10-01T01:27:38.701Z,1.67
2022-10-01T01:30:09.548Z,2.10
2022-10-01T01:32:46.389Z,1.58
2022-10-01T01:35:18.597Z,1.83
2022-10-01T01:37:49.261Z,2.22
2022-10-01T01:40:18.155Z,1.50
2022-10-01T01:42:46.923Z,1.27
2022-10-01T01:45:17.682Z,1.50
2022-10-01T01:47:47.393Z,1.40
2022-10-01T01:50:17.596Z,2.13
2022-10-01T01:52:45.944Z,1.42
2022-10-01T01:55:14.182Z,2.53
2022-10-01T01:57:43.548Z,1.60
2022-10-01T02:00:12.919Z,1.33
2022-10-01T02:02:45.862Z,1.33
2022-10-01T02:05:15.934Z,1.63
2022-10-01T02:07:54.059Z,1.92
2022-10-01T02:10:27.915Z,1.77
2022-10-01T02:13:04.564Z,2.58
2022-10-01T02:15:38.357Z,1.58
2022-10-01T02:18:11.782Z,1.90
2022-10-01T02:20:41.172Z,2.67
2022-10-01T02:23:10.914Z,1.60
2022-10-01T02:25:41.550Z,1.60
2022-10-01T02:28:11.693Z,2.25
2022-10-01T02:30:40.770Z,1.02
2022-10-01T02:33:12.110Z,1.70
2022-10-01T02:35:40.709Z,2.08
2022-10-01T02:38:10.457Z,2.78
2022-10-01T02:40:41.014Z,1.83
2022-10-01T02:43:12.429Z,1.02
2022-10-01T02:45:42.797Z,1.17
2022-10-01T02:48:16.785Z,1.77
2022-10-01T02:50:46.170Z,1.90
2022-10-01T02:53:19.328Z,1.65
2022-10-01T02:55:48.938Z,0.90
2022-10-01T02:58:16.233Z,1.48
2022-10-01T03:00:44.503Z,1.90
2022-10-01T03:03:14.169Z,1.52
2022-10-01T03:05:42.568Z,1.58
2022-10-01T03:08:10.881Z,1.67
2022-10-01T03:10:41.449Z,1.70
2022-10-01T03:13:11.721Z,1.55
2022-10-01T03:15:39.978Z,1.67
2022-10-01T03:18:08.272Z,1.50
2022-10-01T03:20:37.955Z,1.00
2022-10-01T03:23:06.284Z,1.30
2022-10-01T03:25:34.525Z,1.40
2022-10-01T03:28:02.990Z,1.83
2022-10-01T03:30:32.808Z,2.30
2022-10-01T03:33:01.069Z,2.15
2022-10-01T03:35:29.303Z,1.33
2022-10-01T03:37:59.097Z,1.25
2022-10-01T03:40:27.347Z,1.33
2022-10-01T03:42:55.539Z,1.20
2022-10-01T03:45:23.817Z,1.92
2022-10-01T03:47:54.874Z,1.13
2022-10-01T03:50:23.176Z,1.45
2022-10-01T03:52:51.694Z,0.80
2022-10-01T03:55:21.308Z,1.45
2022-10-01T03:57:50.147Z,1.17
2022-10-01T04:00:18.617Z,1.38
2022-10-01T04:02:46.960Z,1.00
2022-10-01T04:05:15.396Z,0.93
2022-10-01T04:07:44.064Z,1.33
2022-10-01T04:10:12.388Z,1.67
2022-10-01T04:12:41.995Z,1.20
2022-10-01T04:15:10.561Z,1.38
2022-10-01T04:17:41.654Z,1.42
2022-10-01T04:20:13.407Z,1.30
2022-10-01T04:22:42.058Z,1.25
2022-10-01T04:25:11.317Z,1.23
2022-10-01T04:27:40.012Z,0.98
2022-10-01T04:30:10.808Z,1.48
2022-10-01T04:32:39.571Z,1.63
2022-10-01T04:35:08.927Z,1.23
2022-10-01T04:37:37.154Z,1.77
2022-10-01T04:40:05.796Z,1.02
2022-10-01T04:42:34.587Z,1.05
2022-10-01T04:45:02.864Z,1.10
2022-10-01T04:47:36.830Z,0.95
2022-10-01T04:50:06.203Z,1.55
2022-10-01T04:52:34.576Z,0.90
2022-10-01T04:55:02.791Z,1.20
2022-10-01T04:57:31.006Z,1.58
2022-10-01T04:59:59.234Z,1.10
2022-10-01T05:02:27.447Z,1.38
2022-10-01T05:04:57.104Z,0.98
2022-10-01T05:07:25.399Z,1.08
2022-10-01T05:09:53.657Z,1.55
2022-10-01T05:12:24.540Z,1.80
2022-10-01T05:14:53.173Z,1.25
2022-10-01T05:17:21.486Z,0.93
2022-10-01T05:19:49.964Z,0.60
2022-10-01T05:22:19.953Z,1.35
2022-10-01T05:24:48.464Z,1.10
2022-10-01T05:27:16.722Z,1.42
2022-10-01T05:29:45.846Z,0.43
2022-10-01T05:32:14.872Z,1.10
2022-10-01T05:34:43.140Z,1.48
2022-10-01T05:37:11.958Z,0.73
2022-10-01T05:39:41.572Z,1.17
2022-10-01T05:42:09.788Z,1.17
2022-10-01T05:44:39.973Z,0.47
2022-10-01T05:47:08.447Z,0.90
2022-10-01T05:49:36.693Z,0.88
2022-10-01T05:52:05.271Z,1.02
2022-10-01T05:54:34.619Z,1.15
2022-10-01T05:57:05.211Z,0.90
2022-10-01T05:59:33.498Z,0.68
2022-10-01T06:02:01.960Z,1.13
2022-10-01T06:04:30.319Z,0.77
2022-10-01T06:06:58.893Z,1.05
2022-10-01T06:09:27.160Z,1.67
2022-10-01T06:11:56.223Z,0.90
2022-10-01T06:14:25.811Z,0.85
2022-10-01T06:16:55.515Z,0.85
2022-10-01T06:19:24.052Z,0.55
2022-10-01T06:21:53.253Z,1.15
2022-10-01T06:24:21.494Z,0.88
2022-10-01T06:26:49.793Z,1.23
2022-10-01T06:29:18.044Z,1.45
2022-10-01T06:31:47.685Z,1.00
2022-10-01T06:34:16.015Z,1.60
2022-10-01T06:36:44.312Z,0.80
2022-10-01T06:39:12.533Z,1.05
2022-10-01T06:41:43.482Z,1.02
2022-10-01T06:44:11.748Z,1.58
2022-10-01T06:46:40.016Z,1.20
2022-10-01T06:49:09.814Z,0.90
2022-10-01T06:51:55.601Z,2.08
2022-10-01T06:54:24.254Z,1.23
2022-10-01T06:56:52.522Z,0.93
2022-10-01T06:59:20.757Z,1.48
2022-10-01T07:01:55.516Z,1.00
2022-10-01T07:04:26.111Z,1.33
2022-10-01T07:06:55.188Z,1.17
2022-10-01T07:09:25.263Z,1.27
2022-10-01T07:11:54.542Z,1.05
2022-10-01T07:14:23.055Z,0.95
2022-10-01T07:16:51.331Z,1.73
2022-10-01T07:19:19.644Z,1.85
2022-10-01T07:21:50.881Z,1.00
2022-10-01T07:24:19.186Z,1.55
2022-10-01T07:26:50.952Z,1.17
2022-10-01T07:29:19.175Z,0.95
2022-10-01T07:31:47.451Z,0.95
2022-10-01T07:34:16.137Z,0.93
2022-10-01T07:36:45.305Z,1.63
2022-10-01T07:39:14.957Z,1.10
2022-10-01T07:41:43.965Z,0.77
2022-10-01T07:44:12.749Z,0.73
2022-10-01T07:46:41.133Z,0.85
2022-10-01T07:49:10.123Z,0.93
2022-10-01T07:51:38.572Z,1.08
2022-10-01T07:54:07.383Z,0.47
2022-10-01T07:56:37.085Z,0.57
2022-10-01T07:59:05.851Z,0.50
2022-10-01T08:01:34.313Z,0.60
2022-10-01T08:04:23.809Z,0.57
2022-10-01T08:06:52.415Z,0.32
2022-10-01T08:09:20.694Z,0.60
2022-10-01T08:11:50.335Z,0.17
2022-10-01T08:14:20.482Z,0.77
2022-10-01T08:16:48.874Z,0.30
2022-10-01T08:19:17.519Z,1.65
2022-10-01T08:21:45.740Z,0.70
2022-10-01T08:24:14.147Z,0.70
2022-10-01T08:26:42.455Z,0.65
2022-10-01T08:29:16.867Z,0.40
2022-10-01T08:31:45.360Z,1.35
2022-10-01T08:34:13.671Z,0.43
2022-10-01T08:36:42.279Z,0.52
2022-10-01T08:39:10.845Z,0.50
2022-10-01T08:41:44.653Z,0.28
2022-10-01T08:44:20.327Z,0.25
2022-10-01T08:46:49.389Z,0.65
2022-10-01T08:49:20.653Z,0.47
2022-10-01T08:51:50.397Z,0.95
2022-10-01T08:54:26.432Z,0.40
2022-10-01T08:56:55.222Z,0.60
2022-10-01T08:59:31.385Z,1.00
2022-10-01T09:02:00.107Z,0.20
2022-10-01T09:04:29.118Z,0.20
2022-10-01T09:07:02.104Z,0.40
2022-10-01T09:09:36.690Z,0.47
2022-10-01T09:12:12.699Z,0.95
2022-10-01T09:14:49.209Z,0.10
2022-10-01T09:17:20.964Z,0.22
2022-10-01T09:19:56.795Z,0.30
2022-10-01T09:22:29.301Z,0.20
2022-10-01T09:25:07.132Z,0.35
2022-10-01T09:27:35.741Z,0.30
2022-10-01T09:30:06.735Z,0.40
2022-10-01T09:32:37.730Z,0.35
2022-10-01T09:35:14.680Z,0.20
2022-10-01T09:37:45.080Z,0.22
2022-10-01T09:40:16.784Z,0.30
2022-10-01T09:42:45.136Z,0.20
2022-10-01T09:45:15.844Z,0.30
2022-10-01T09:47:45.357Z,0.30
2022-10-01T09:50:16.523Z,0.20
2022-10-01T09:52:47.635Z,0.43
2022-10-01T09:55:24.566Z,0.43
2022-10-01T09:57:55.690Z,0.47
2022-10-01T10:00:26.858Z,0.22
2022-10-01T10:02:56.232Z,0.17
2022-10-01T10:05:25.218Z,0.20
2022-10-01T10:07:54.849Z,0.35
2022-10-01T10:10:26.035Z,0.35
2022-10-01T10:12:58.154Z,0.52
2022-10-01T10:15:28.021Z,0.10
2022-10-01T10:17:56.328Z,0.20
2022-10-01T10:20:33.033Z,0.57
2022-10-01T10:23:10.691Z,0.30
2022-10-01T10:25:38.985Z,0.25
2022-10-01T10:28:19.321Z,0.20
2022-10-01T10:30:49.995Z,0.20
2022-10-01T10:33:18.402Z,0.20
2022-10-01T10:35:46.705Z,0.30
2022-10-01T10:38:20.437Z,0.60
2022-10-01T10:40:48.858Z,0.30
2022-10-01T10:43:20.785Z,0.68
2022-10-01T10:45:55.193Z,0.40
2022-10-01T10:48:24.389Z,0.30
2022-10-01T10:50:59.913Z,0.43
2022-10-01T10:53:29.189Z,0.10
2022-10-01T10:56:00.351Z,0.47
2022-10-01T10:58:30.153Z,1.00
2022-10-01T11:01:01.240Z,0.20
2022-10-01T11:03:31.333Z,0.43
2022-10-01T11:06:02.710Z,0.70
2022-10-01T11:08:31.343Z,0.30
2022-10-01T11:11:05.536Z,0.32
2022-10-01T11:13:46.578Z,0.20
2022-10-01T11:16:25.257Z,0.38
2022-10-01T11:19:01.513Z,0.40
2022-10-01T11:21:47.847Z,0.45
2022-10-01T11:24:34.988Z,0.38
2022-10-01T11:27:07.029Z,1.13
2022-10-01T11:29:39.471Z,0.50
2022-10-01T11:32:19.298Z,0.55
2022-10-01T11:34:58.890Z,0.32
2022-10-01T11:37:38.961Z,0.35
2022-10-01T11:40:19.491Z,0.32
2022-10-01T11:42:51.162Z,0.30
2022-10-01T11:45:21.421Z,0.52
2022-10-01T11:47:54.137Z,0.30
2022-10-01T11:50:25.207Z,0.40
2022-10-01T11:52:57.071Z,0.40
2022-10-01T11:55:45.617Z,0.98
2022-10-01T11:58:34.208Z,0.98
2022-10-01T12:01:05.671Z,0.38
2022-10-01T12:03:38.650Z,0.82
2022-10-01T12:06:09.361Z,0.50
2022-10-01T12:08:39.141Z,0.45
2022-10-01T12:11:11.770Z,0.20
2022-10-01T12:13:43.163Z,0.30
2022-10-01T12:16:14.959Z,0.43
2022-10-01T12:18:50.031Z,0.55
2022-10-01T12:23:50.412Z,0.55
2022-10-01T12:26:22.608Z,0.60
2022-10-01T12:28:59.297Z,0.40
2022-10-01T12:31:31.494Z,0.32
2022-10-01T12:34:09.657Z,0.65
2022-10-01T12:36:44.577Z,0.70
2022-10-01T12:39:21.596Z,0.77
2022-10-01T12:41:57.314Z,0.43
2022-10-01T12:44:38.203Z,0.73
2022-10-01T12:47:12.538Z,0.40
2022-10-01T12:49:46.023Z,0.93
2022-10-01T12:52:18.952Z,0.85
2022-10-01T12:54:53.068Z,0.38
2022-10-01T12:57:28.911Z,0.27
2022-10-01T13:00:04.113Z,0.40
2022-10-01T13:02:39.436Z,0.50
2022-10-01T13:05:19.978Z,0.47
2022-10-01T13:07:58.173Z,0.40
2022-10-01T13:10:32.267Z,0.20
2022-10-01T13:13:04.310Z,0.10
2022-10-01T13:15:34.914Z,0.32
2022-10-01T13:18:08.040Z,0.60
2022-10-01T13:20:41.142Z,0.35
2022-10-01T13:23:13.336Z,0.50
2022-10-01T13:25:45.695Z,0.55
2022-10-01T13:28:18.221Z,0.40
2022-10-01T13:30:52.692Z,0.10
2022-10-01T13:33:26.157Z,0.35
2022-10-01T13:35:57.252Z,0.45
2022-10-01T13:38:30.572Z,0.40
2022-10-01T13:41:00.097Z,0.32
2022-10-01T13:43:28.735Z,0.20
2022-10-01T13:45:58.384Z,0.22
2022-10-01T13:48:29.219Z,0.22
2022-10-01T13:51:03.142Z,0.10
2022-10-01T13:53:33.057Z,0.20
2022-10-01T13:56:01.947Z,0.30
2022-10-01T13:58:35.568Z,0.47
2022-10-01T14:01:04.903Z,0.20
2022-10-01T14:03:41.195Z,0.30
2022-10-01T14:06:17.625Z,0.25
2022-10-01T14:08:48.260Z,0.43
2022-10-01T14:11:36.220Z,0.25
2022-10-01T14:14:27.597Z,0.30
2022-10-01T14:16:56.763Z,0.30
2022-10-01T14:19:26.591Z,0.20
2022-10-01T14:22:03.907Z,0.13
2022-10-01T14:24:34.630Z,0.30
2022-10-01T14:27:06.453Z,0.10
2022-10-01T14:29:44.445Z,0.40
2022-10-01T14:32:19.199Z,0.00
2022-10-01T14:34:53.989Z,0.17
2022-10-01T14:37:24.226Z,0.10
2022-10-01T14:40:02.455Z,0.17
2022-10-01T14:42:30.817Z,0.10
2022-10-01T14:44:59.146Z,0.20
2022-10-01T14:47:34.974Z,0.63
2022-10-01T14:50:10.783Z,0.30
2022-10-01T14:52:41.162Z,0.47
2022-10-01T14:55:13.709Z,0.10
2022-10-01T14:57:43.139Z,0.13
2022-10-01T15:00:16.447Z,0.10
2022-10-01T15:02:48.372Z,0.10
2022-10-01T15:05:22.336Z,0.57
2022-10-01T15:07:52.259Z,0.20
2022-10-01T15:10:21.740Z,0.38
2022-10-01T15:12:51.968Z,0.32
2022-10-01T15:15:21.209Z,0.20
2022-10-01T15:17:49.779Z,0.30
2022-10-01T15:20:19.101Z,0.85
2022-10-01T15:22:50.067Z,0.25
2022-10-01T15:25:21.109Z,0.35
2022-10-01T15:27:50.849Z,0.30
2022-10-01T15:30:19.728Z,0.20
2022-10-01T15:32:49.328Z,0.20
2022-10-01T15:35:20.156Z,0.10
2022-10-01T15:37:50.451Z,0.40
2022-10-01T15:40:24.988Z,0.35
2022-10-01T15:43:15.523Z,0.80
2022-10-01T15:45:44.339Z,0.30
2022-10-01T15:48:30.205Z,0.57
2022-10-01T15:51:00.399Z,0.20
2022-10-01T15:53:29.400Z,0.40
2022-10-01T15:55:59.689Z,0.20
2022-10-01T15:58:30.363Z,0.43
2022-10-01T16:01:01.256Z,0.17
2022-10-01T16:03:32.556Z,0.30
2022-10-01T16:06:01.940Z,0.17
2022-10-01T16:08:34.371Z,0.43
2022-10-01T16:11:18.975Z,0.20
2022-10-01T16:13:48.994Z,0.20
2022-10-01T16:16:28.057Z,0.40
2022-10-01T16:18:59.154Z,0.30
2022-10-01T16:21:27.885Z,0.20
2022-10-01T16:23:56.975Z,0.30
2022-10-01T16:26:40.408Z,0.20
2022-10-01T16:29:24.163Z,0.43
2022-10-01T16:31:52.651Z,0.20
2022-10-01T16:34:21.947Z,0.20
2022-10-01T16:36:50.525Z,0.22
2022-10-01T16:39:18.907Z,0.50
2022-10-01T16:42:06.237Z,0.20
2022-10-01T16:44:40.766Z,0.38
2022-10-01T16:47:11.530Z,0.25
2022-10-01T16:49:39.864Z,0.40
2022-10-01T16:52:08.308Z,0.10
2022-10-01T16:54:36.637Z,0.10
2022-10-01T16:57:06.490Z,0.25
2022-10-01T16:59:34.844Z,0.50
2022-10-01T17:02:03.334Z,0.17
2022-10-01T17:04:33.984Z,0.20
2022-10-01T17:07:02.784Z,0.20
2022-10-01T17:09:31.296Z,0.10
2022-10-01T17:12:01.760Z,0.20
2022-10-01T17:14:31.671Z,0.20
2022-10-01T17:16:59.994Z,0.13
2022-10-01T17:19:28.374Z,0.38
2022-10-01T17:21:56.857Z,0.43
2022-10-01T17:24:25.451Z,0.05
2022-10-01T17:26:53.798Z,0.00
2022-10-01T17:29:22.147Z,0.00
2022-10-01T17:31:53.198Z,0.10
2022-10-01T17:34:22.097Z,0.20
2022-10-01T17:36:50.446Z,0.40
2022-10-01T17:39:18.728Z,0.20
2022-10-01T17:41:47.049Z,0.20
2022-10-01T17:44:15.428Z,0.20
2022-10-01T17:46:43.772Z,0.30
2022-10-01T17:49:14.609Z,0.20
2022-10-01T17:51:42.876Z,0.20
2022-10-01T17:54:11.314Z,0.20
2022-10-01T17:56:40.711Z,0.20
2022-10-01T17:59:09.048Z,0.10
2022-10-01T18:01:37.334Z,0.30
2022-10-01T18:04:05.812Z,0.10
2022-10-01T18:06:35.846Z,0.10
2022-10-01T18:09:04.435Z,0.22
2022-10-01T18:11:32.781Z,0.22
2022-10-01T18:14:01.156Z,0.22
2022-10-01T18:16:29.579Z,0.15
2022-10-01T18:21:48.934Z,0.43
2022-10-01T18:24:17.576Z,0.30
2022-10-01T18:26:45.982Z,0.35
2022-10-01T18:29:18.637Z,0.28
2022-10-01T18:31:47.626Z,0.28
2022-10-01T18:34:19.493Z,0.10
2022-10-01T18:36:52.826Z,0.10
2022-10-01T18:39:23.123Z,0.25
2022-10-01T18:41:52.001Z,0.30
2022-10-01T18:44:21.466Z,0.20
2022-10-01T18:46:56.772Z,0.10
2022-10-01T18:49:31.898Z,0.13
2022-10-01T18:52:09.785Z,0.20
2022-10-01T18:54:45.760Z,0.32
2022-10-01T18:57:18.751Z,0.50
2022-10-01T18:59:56.100Z,0.57
2022-10-01T19:02:32.157Z,0.70
2022-10-01T19:05:15.362Z,0.30
2022-10-01T19:07:53.438Z,0.20
2022-10-01T19:10:24.837Z,0.20
2022-10-01T19:12:56.711Z,0.30
2022-10-01T19:15:31.005Z,0.30
2022-10-01T19:18:05.059Z,0.30
2022-10-01T19:20:46.150Z,0.20
2022-10-01T19:23:26.794Z,0.10
2022-10-01T19:25:57.166Z,0.30
2022-10-01T19:28:34.715Z,0.20
2022-10-01T19:31:08.022Z,0.03
2022-10-01T19:33:38.411Z,0.10
2022-10-01T19:36:07.830Z,0.10
2022-10-01T19:38:40.107Z,0.10
2022-10-01T19:41:10.418Z,0.28
2022-10-01T19:43:41.177Z,0.20
2022-10-01T19:46:13.020Z,0.10
2022-10-01T19:48:45.991Z,0.10
2022-10-01T19:51:15.027Z,0.10
2022-10-01T19:53:46.010Z,0.10
2022-10-01T19:56:17.184Z,0.10
2022-10-01T19:58:46.581Z,0.08
2022-10-01T20:01:19.738Z,0.10
2022-10-01T20:03:51.887Z,0.20
2022-10-01T20:06:22.820Z,0.20
2022-10-01T20:08:53.858Z,0.20
2022-10-01T20:11:26.303Z,0.03
2022-10-01T20:14:12.404Z,0.10
2022-10-01T20:16:43.833Z,0.45
2022-10-01T20:19:17.947Z,0.20
2022-10-01T20:21:49.545Z,0.10
2022-10-01T20:24:29.081Z,0.30
2022-10-01T20:27:03.364Z,0.22
2022-10-01T20:29:35.322Z,0.40
2022-10-01T20:32:06.613Z,0.10
2022-10-01T20:34:39.130Z,0.10
2022-10-01T20:37:13.918Z,0.10
2022-10-01T20:39:46.097Z,0.10
2022-10-01T20:42:18.234Z,0.10
2022-10-01T20:44:47.491Z,0.25
2022-10-01T20:47:21.916Z,0.10
2022-10-01T20:49:54.303Z,0.10
2022-10-01T20:52:26.962Z,0.10
2022-10-01T20:55:01.053Z,0.20
2022-10-01T20:57:32.784Z,0.30
2022-10-01T21:00:06.599Z,0.10
2022-10-01T21:02:39.829Z,0.10
2022-10-01T21:05:09.673Z,0.10
2022-10-01T21:07:40.234Z,0.28
2022-10-01T21:10:18.054Z,0.17
2022-10-01T21:12:59.914Z,0.10
2022-10-01T21:15:32.411Z,0.15
2022-10-01T21:18:06.104Z,0.10
2022-10-01T21:20:42.967Z,0.10
2022-10-01T21:23:18.059Z,0.10
2022-10-01T21:25:54.744Z,0.03
2022-10-01T21:28:29.786Z,0.10
2022-10-01T21:33:28.094Z,0.10
2022-10-01T21:36:00.800Z,0.30
2022-10-01T21:38:33.440Z,0.10
2022-10-01T21:41:09.749Z,0.22
2022-10-01T21:43:45.965Z,0.10
2022-10-01T21:46:20.617Z,0.00
2022-10-01T21:48:54.168Z,0.10
2022-10-01T21:51:26.806Z,0.20
2022-10-01T21:54:02.304Z,0.00
2022-10-01T21:56:39.728Z,0.10
2022-10-01T21:59:13.209Z,0.10
2022-10-01T22:01:55.936Z,0.10
2022-10-01T22:04:30.412Z,0.17
2022-10-01T22:07:01.605Z,0.20
2022-10-01T22:09:33.729Z,0.00
2022-10-01T22:12:04.616Z,0.00
2022-10-01T22:14:33.439Z,0.20
2022-10-01T22:17:04.582Z,0.10
2022-10-01T22:19:34.292Z,0.25
2022-10-01T22:22:05.321Z,0.10
2022-10-01T22:24:38.980Z,0.80
2022-10-01T22:27:11.600Z,0.30
2022-10-01T22:29:42.918Z,0.00
2022-10-01T22:32:13.800Z,0.13
2022-10-01T22:34:45.972Z,0.20
2022-10-01T22:37:17.273Z,0.05
2022-10-01T22:39:49.562Z,0.10
2022-10-01T22:42:21.697Z,0.60
2022-10-01T22:44:50.189Z,0.13
2022-10-01T22:47:32.938Z,0.00
2022-10-01T22:50:19.343Z,0.00
2022-10-01T22:52:55.127Z,0.20
2022-10-01T22:55:27.586Z,0.10
2022-10-01T22:58:04.998Z,0.15
2022-10-01T23:00:35.500Z,0.17
2022-10-01T23:03:09.432Z,0.03
2022-10-01T23:05:46.631Z,0.10
2022-10-01T23:08:20.236Z,0.10
2022-10-01T23:10:56.092Z,0.10
2022-10-01T23:13:30.743Z,0.25
2022-10-01T23:16:01.535Z,0.00
2022-10-01T23:18:40.197Z,0.10
2022-10-01T23:21:14.860Z,0.10
2022-10-01T23:23:45.113Z,0.20
2022-10-01T23:26:20.944Z,0.30
2022-10-01T23:28:56.296Z,0.10
2022-10-01T23:31:27.975Z,0.10
2022-10-01T23:34:00.192Z,0.10
2022-10-01T23:36:33.299Z,0.20
2022-10-01T23:39:13.257Z,0.10
2022-10-01T23:41:43.076Z,0.15
2022-10-01T23:44:15.844Z,0.50
2022-10-01T23:46:44.651Z,0.10
2022-10-01T23:49:14.289Z,0.17
2022-10-01T23:51:46.395Z,0.20
2022-10-01T23:54:17.502Z,0.03
2022-10-01T23:56:50.992Z,0.15
2022-10-01T23:59:28.136Z,0.10
